createdAt,value
2019-05-13T00:00:34.081Z,99626.33
2019-05-13T00:03:03.646Z,99623.69
2019-05-13T00:05:33.849Z,99632.57
2019-05-13T00:08:03.526Z,99633.25
2019-05-13T00:10:34.791Z,99628.75
2019-05-13T00:13:04.531Z,99624.93
2019-05-13T00:15:33.946Z,99624.45
2019-05-13T00:18:03.855Z,99630.66
2019-05-13T00:20:33.730Z,99631.06
2019-05-13T00:23:03.988Z,99634.16
2019-05-13T00:25:34.041Z,99634.16
2019-05-13T00:28:04.089Z,99628.67
2019-05-13T00:30:34.269Z,99633.00
2019-05-13T00:33:03.762Z,99639.32
2019-05-13T00:35:33.855Z,99636.73
2019-05-13T00:38:03.782Z,99641.13
2019-05-13T00:40:33.733Z,99644.70
2019-05-13T00:43:03.807Z,99646.70
2019-05-13T00:45:33.880Z,99645.19
2019-05-13T00:48:04.677Z,99654.06
2019-05-13T00:50:33.527Z,99649.74
2019-05-13T00:53:04.252Z,99654.48
2019-05-13T00:55:34.343Z,99659.92
2019-05-13T00:58:04.441Z,99664.09
2019-05-13T01:00:34.049Z,99661.81
2019-05-13T01:03:04.109Z,99661.49
2019-05-13T01:05:34.027Z,99671.43
2019-05-13T01:08:04.264Z,99675.66
2019-05-13T01:10:34.473Z,99668.52
2019-05-13T01:13:04.606Z,99679.82
2019-05-13T01:15:34.349Z,99672.91
2019-05-13T01:18:03.945Z,99670.64
2019-05-13T01:20:34.512Z,99671.11
2019-05-13T01:23:03.590Z,99671.23
2019-05-13T01:25:33.758Z,99671.23
2019-05-13T01:28:04.590Z,99672.90
2019-05-13T01:30:34.576Z,99670.14
2019-05-13T01:33:04.319Z,99667.11
2019-05-13T01:35:34.328Z,99665.17
2019-05-13T01:38:04.546Z,99663.00
2019-05-13T01:40:34.682Z,99660.81
2019-05-13T01:43:03.914Z,99663.52
2019-05-13T01:45:33.694Z,99667.66
2019-05-13T01:48:06.984Z,99668.47
2019-05-13T01:50:33.705Z,99672.36
2019-05-13T01:53:04.251Z,99673.71
2019-05-13T01:55:33.990Z,99675.94
2019-05-13T01:58:04.294Z,99671.78
2019-05-13T02:00:35.354Z,99671.83
2019-05-13T02:03:04.010Z,99669.92
2019-05-13T02:05:33.915Z,99676.80
2019-05-13T02:08:04.459Z,99680.37
2019-05-13T02:10:53.926Z,99683.67
2019-05-13T02:13:24.484Z,99678.42
2019-05-13T02:15:54.939Z,99676.75
2019-05-13T02:18:24.407Z,99681.67
2019-05-13T02:20:55.529Z,99673.77
2019-05-13T02:23:24.082Z,99688.92
2019-05-13T02:25:54.300Z,99681.98
2019-05-13T02:28:24.691Z,99687.53
2019-05-13T02:30:55.924Z,99692.48
2019-05-13T02:33:23.233Z,99693.86
2019-05-13T02:35:53.162Z,99694.71
2019-05-13T02:38:26.377Z,99687.80
2019-05-13T02:40:53.032Z,99692.52
2019-05-13T02:43:23.200Z,99690.25
2019-05-13T02:45:53.674Z,99686.12
2019-05-13T02:48:23.595Z,99691.66
2019-05-13T02:50:53.494Z,99691.11
2019-05-13T02:53:23.630Z,99691.11
2019-05-13T02:55:53.091Z,99695.79
2019-05-13T02:58:24.323Z,99696.89
2019-05-13T03:00:53.386Z,99703.78
2019-05-13T03:03:23.333Z,99702.66
2019-05-13T03:05:52.922Z,99711.22
2019-05-13T03:08:38.047Z,99711.22
2019-05-13T03:10:53.083Z,99714.16
2019-05-13T03:13:23.466Z,99716.41
2019-05-13T03:16:03.922Z,99719.20
2019-05-13T03:18:33.438Z,99727.37
2019-05-13T03:21:03.463Z,99731.61
2019-05-13T03:23:32.977Z,99719.44
2019-05-13T03:26:02.802Z,99732.11
2019-05-13T03:28:33.711Z,99727.13
2019-05-13T03:31:06.218Z,99728.00
2019-05-13T03:33:36.806Z,99736.58
2019-05-13T03:36:07.286Z,99735.45
2019-05-13T03:38:58.742Z,99740.72
2019-05-13T03:41:07.420Z,99743.17
2019-05-13T03:43:38.996Z,99738.20
2019-05-13T03:46:08.511Z,99739.88
2019-05-13T03:48:42.819Z,99744.00
2019-05-13T03:51:13.130Z,99745.13
2019-05-13T03:53:43.303Z,99734.60
2019-05-13T03:56:12.885Z,99745.66
2019-05-13T03:58:43.324Z,99742.36
2019-05-13T04:01:13.021Z,99745.66
2019-05-13T04:03:43.962Z,99746.50
2019-05-13T04:06:13.567Z,99747.31
2019-05-13T04:08:43.833Z,99747.86
2019-05-13T04:11:13.290Z,99748.98
2019-05-13T04:13:42.873Z,99751.46
2019-05-13T04:16:13.235Z,99752.77
2019-05-13T04:18:43.116Z,99749.78
2019-05-13T04:21:13.272Z,99758.89
2019-05-13T04:23:42.826Z,99756.70
2019-05-13T04:26:14.677Z,99763.02
2019-05-13T04:28:43.576Z,99766.61
2019-05-13T04:31:14.264Z,99765.78
2019-05-13T04:33:43.136Z,99759.38
2019-05-13T04:36:13.413Z,99759.73
2019-05-13T04:38:44.173Z,99756.39
2019-05-13T04:44:53.301Z,99756.00
2019-05-13T04:47:22.974Z,99764.87
2019-05-13T04:49:53.426Z,99762.48
2019-05-13T04:52:22.516Z,99759.69
2019-05-13T04:54:52.752Z,99763.88
2019-05-13T04:57:22.686Z,99775.41
2019-05-13T04:59:54.903Z,99771.03
2019-05-13T05:02:46.039Z,99775.70
2019-05-13T05:05:32.583Z,99777.04
2019-05-13T05:08:22.607Z,99780.13
2019-05-13T05:10:56.822Z,99776.25
2019-05-13T05:13:42.691Z,99779.55
2019-05-13T05:16:28.535Z,99786.99
2019-05-13T05:19:05.864Z,99785.09
2019-05-13T05:21:37.393Z,99782.30
2019-05-13T05:24:14.463Z,99778.48
2019-05-13T05:27:21.301Z,99777.35
2019-05-13T05:30:25.625Z,99774.91
2019-05-13T05:33:21.403Z,99775.17
2019-05-13T05:36:15.918Z,99780.40
2019-05-13T05:38:53.321Z,99782.31
2019-05-13T05:41:25.094Z,99775.68
2019-05-13T05:43:55.744Z,99778.47
2019-05-13T05:46:26.456Z,99775.72
2019-05-13T05:48:56.682Z,99781.78
2019-05-13T05:51:25.846Z,99781.78
2019-05-13T05:53:57.467Z,99779.53
2019-05-13T05:56:28.998Z,99791.41
2019-05-13T05:59:02.637Z,99780.09
2019-05-13T06:01:32.671Z,99786.19
2019-05-13T06:04:01.572Z,99790.85
2019-05-13T06:06:32.914Z,99784.09
2019-05-13T06:09:01.998Z,99796.68
2019-05-13T06:11:32.907Z,99788.44
2019-05-13T06:14:02.264Z,99797.23
2019-05-13T06:16:32.056Z,99793.59
2019-05-13T06:19:01.481Z,99800.81
2019-05-13T06:21:32.076Z,99807.03
2019-05-13T06:24:02.706Z,99805.67
2019-05-13T06:26:31.379Z,99809.86
2019-05-13T06:29:02.547Z,99809.60
2019-05-13T06:31:32.242Z,99814.03
2019-05-13T06:34:02.054Z,99813.47
2019-05-13T06:36:31.691Z,99815.16
2019-05-13T06:39:02.228Z,99814.34
2019-05-13T06:41:32.303Z,99814.02
2019-05-13T06:44:02.230Z,99809.87
2019-05-13T06:46:32.288Z,99812.64
2019-05-13T06:49:02.970Z,99805.67
2019-05-13T06:51:31.495Z,99811.66
2019-05-13T06:54:02.326Z,99815.96
2019-05-13T06:56:32.282Z,99815.96
2019-05-13T06:59:01.582Z,99816.20
2019-05-13T07:01:32.301Z,99823.52
2019-05-13T07:04:02.390Z,99830.05
2019-05-13T07:06:32.292Z,99837.46
2019-05-13T07:09:01.527Z,99842.65
2019-05-13T07:11:31.433Z,99845.72
2019-05-13T07:14:02.330Z,99843.53
2019-05-13T07:16:31.709Z,99844.91
2019-05-13T07:19:02.653Z,99844.92
2019-05-13T07:21:32.301Z,99850.13
2019-05-13T07:24:02.262Z,99846.77
2019-05-13T07:26:31.574Z,99846.39
2019-05-13T07:29:03.297Z,99845.30
2019-05-13T07:31:32.396Z,99845.92
2019-05-13T07:34:02.249Z,99847.45
2019-05-13T07:36:31.743Z,99844.27
2019-05-13T07:39:01.763Z,99850.88
2019-05-13T07:41:38.265Z,99851.19
2019-05-13T07:44:02.596Z,99851.02
2019-05-13T07:46:32.253Z,99851.63
2019-05-13T07:49:02.099Z,99848.55
2019-05-13T07:51:31.662Z,99856.30
2019-05-13T07:54:02.265Z,99851.22
2019-05-13T07:56:32.402Z,99858.57
2019-05-13T07:59:01.955Z,99853.92
2019-05-13T08:01:32.713Z,99859.70
2019-05-13T08:04:02.190Z,99860.20
2019-05-13T08:06:32.349Z,99847.60
2019-05-13T08:09:01.852Z,99856.16
2019-05-13T08:11:36.833Z,99853.70
2019-05-13T08:14:01.780Z,99858.19
2019-05-13T08:16:32.308Z,99863.39
2019-05-13T08:19:01.829Z,99862.31
2019-05-13T08:21:32.385Z,99867.50
2019-05-13T08:24:02.819Z,99869.45
2019-05-13T08:26:32.284Z,99864.87
2019-05-13T08:29:04.911Z,99871.45
2019-05-13T08:31:32.230Z,99869.31
2019-05-13T08:34:02.393Z,99867.47
2019-05-13T08:36:32.705Z,99880.66
2019-05-13T08:39:02.579Z,99877.55
2019-05-13T08:41:32.277Z,99875.56
2019-05-13T08:44:01.797Z,99874.09
2019-05-13T08:46:32.477Z,99882.11
2019-05-13T08:49:03.708Z,99886.40
2019-05-13T08:51:34.645Z,99883.26
2019-05-13T08:54:02.554Z,99885.75
2019-05-13T08:56:32.576Z,99893.98
2019-05-13T08:59:01.324Z,99891.56
2019-05-13T09:01:31.921Z,99886.84
2019-05-13T09:04:02.324Z,99889.97
2019-05-13T09:06:31.224Z,99893.77
2019-05-13T09:09:01.735Z,99895.67
2019-05-13T09:11:31.505Z,99892.42
2019-05-13T09:14:02.321Z,99888.70
2019-05-13T09:16:31.989Z,99893.18
2019-05-13T09:19:03.858Z,99899.53
2019-05-13T09:21:31.824Z,99888.31
2019-05-13T09:24:02.209Z,99897.31
2019-05-13T09:26:31.578Z,99885.55
2019-05-13T09:29:01.421Z,99882.06
2019-05-13T09:31:32.435Z,99882.33
2019-05-13T09:34:01.453Z,99885.38
2019-05-13T09:36:32.437Z,99888.45
2019-05-13T09:39:02.035Z,99887.69
2019-05-13T09:41:32.285Z,99888.84
2019-05-13T09:44:02.028Z,99888.66
2019-05-13T09:46:31.966Z,99896.30
2019-05-13T09:49:15.047Z,99904.53
2019-05-13T09:51:32.393Z,99891.42
2019-05-13T09:54:01.484Z,99892.53
2019-05-13T09:56:31.910Z,99888.85
2019-05-13T09:59:01.715Z,99897.20
2019-05-13T10:01:32.052Z,99895.72
2019-05-13T10:04:02.922Z,99887.95
2019-05-13T10:06:32.669Z,99893.38
2019-05-13T10:09:02.367Z,99891.17
2019-05-13T10:11:31.061Z,99888.55
2019-05-13T10:14:01.838Z,99894.59
2019-05-13T10:16:31.291Z,99889.69
2019-05-13T10:19:01.677Z,99888.09
2019-05-13T10:21:32.695Z,99886.55
2019-05-13T10:24:00.615Z,99888.50
2019-05-13T10:26:32.073Z,99882.85
2019-05-13T10:28:59.960Z,99892.59
2019-05-13T10:31:28.452Z,99880.66
2019-05-13T10:33:58.222Z,99888.32
2019-05-13T10:36:27.182Z,99885.27
2019-05-13T10:38:55.741Z,99874.40
2019-05-13T10:41:24.511Z,99881.16
2019-05-13T10:43:53.051Z,99884.22
2019-05-13T10:46:22.121Z,99888.05
2019-05-13T10:48:52.637Z,99883.28
2019-05-13T10:51:22.320Z,99888.87
2019-05-13T10:53:58.985Z,99883.84
2019-05-13T10:56:23.488Z,99880.67
2019-05-13T10:58:53.425Z,99877.59
2019-05-13T11:01:22.679Z,99877.88
2019-05-13T11:03:52.379Z,99881.36
2019-05-13T11:06:21.958Z,99884.88
2019-05-13T11:08:53.099Z,99881.20
2019-05-13T11:11:21.908Z,99878.66
2019-05-13T11:13:58.735Z,99871.09
2019-05-13T11:16:22.522Z,99866.54
2019-05-13T11:18:51.953Z,99878.50
2019-05-13T11:21:22.143Z,99878.30
2019-05-13T11:23:51.837Z,99870.45
2019-05-13T11:26:22.038Z,99881.51
2019-05-13T11:28:52.151Z,99879.53
2019-05-13T11:31:22.415Z,99877.25
2019-05-13T11:33:52.131Z,99879.22
2019-05-13T11:36:23.383Z,99877.22
2019-05-13T11:38:53.077Z,99874.33
2019-05-13T11:41:22.902Z,99870.12
2019-05-13T11:44:09.196Z,99865.82
2019-05-13T11:46:22.828Z,99864.86
2019-05-13T11:48:52.959Z,99857.19
2019-05-13T11:51:24.184Z,99854.13
2019-05-13T11:53:52.509Z,99853.89
2019-05-13T11:56:22.973Z,99860.16
2019-05-13T11:58:53.322Z,99857.17
2019-05-13T12:01:22.962Z,99852.77
2019-05-13T12:03:53.144Z,99851.11
2019-05-13T12:06:23.248Z,99853.83
2019-05-13T12:08:55.283Z,99856.05
2019-05-13T12:11:22.626Z,99856.16
2019-05-13T12:13:52.728Z,99853.09
2019-05-13T12:16:22.722Z,99841.63
2019-05-13T12:18:52.799Z,99853.16
2019-05-13T12:21:21.618Z,99850.16
2019-05-13T12:23:52.676Z,99843.06
2019-05-13T12:26:23.471Z,99850.12
2019-05-13T12:28:53.527Z,99852.27
2019-05-13T12:31:22.293Z,99850.99
2019-05-13T12:33:52.302Z,99847.80
2019-05-13T12:36:23.600Z,99844.38
2019-05-13T12:38:53.514Z,99837.81
2019-05-13T12:41:23.072Z,99844.18
2019-05-13T12:43:53.987Z,99838.65
2019-05-13T12:46:24.688Z,99832.44
2019-05-13T12:48:52.297Z,99831.34
2019-05-13T12:51:22.700Z,99828.55
2019-05-13T12:53:52.784Z,99826.37
2019-05-13T12:56:23.625Z,99820.72
2019-05-13T12:58:52.253Z,99817.34
2019-05-13T13:01:23.970Z,99810.95
2019-05-13T13:03:52.794Z,99820.36
2019-05-13T13:08:51.508Z,99811.47
2019-05-13T13:11:22.811Z,99813.86
2019-05-13T13:13:58.911Z,99812.84
2019-05-13T13:16:20.582Z,99814.70
2019-05-13T13:18:51.533Z,99826.26
2019-05-13T13:21:19.365Z,99821.87
2019-05-13T13:23:47.918Z,99818.55
2019-05-13T13:26:16.633Z,99821.69
2019-05-13T13:28:45.273Z,99820.89
2019-05-13T13:31:13.763Z,99827.84
2019-05-13T13:33:44.361Z,99828.81
2019-05-13T13:36:15.854Z,99827.14
2019-05-13T13:38:44.125Z,99828.90
2019-05-13T13:41:22.068Z,99839.19
2019-05-13T13:43:43.039Z,99849.27
2019-05-13T13:46:32.332Z,99848.56
2019-05-13T13:48:43.713Z,99849.16
2019-05-13T13:51:15.037Z,99846.84
2019-05-13T13:53:44.800Z,99851.96
2019-05-13T13:56:14.994Z,99857.21
2019-05-13T13:58:44.300Z,99859.06
2019-05-13T14:01:20.187Z,99850.41
2019-05-13T14:03:46.000Z,99858.78
2019-05-13T14:06:13.343Z,99865.47
2019-05-13T14:07:09.350Z,99823.28
2019-05-13T14:08:41.822Z,99855.84
2019-05-13T14:11:13.120Z,99854.45
2019-05-13T14:13:42.535Z,99855.84
2019-05-13T14:16:24.525Z,99857.16
2019-05-13T14:18:42.713Z,99850.31
2019-05-13T14:21:11.298Z,99848.12
2019-05-13T14:23:42.384Z,99849.03
2019-05-13T14:26:10.471Z,99846.31
2019-05-13T14:28:38.915Z,99857.26
2019-05-13T14:31:07.425Z,99854.11
2019-05-13T14:33:35.912Z,99864.71
2019-05-13T14:36:05.066Z,99862.99
2019-05-13T14:38:33.817Z,99854.06
2019-05-13T14:41:03.415Z,99861.95
2019-05-13T14:43:33.521Z,99858.39
2019-05-13T14:46:02.696Z,99861.70
2019-05-13T14:48:32.967Z,99859.47
2019-05-13T14:51:02.033Z,99866.15
2019-05-13T14:53:32.191Z,99863.96
2019-05-13T14:56:03.071Z,99875.27
2019-05-13T14:58:32.446Z,99886.30
2019-05-13T15:01:14.333Z,99884.85
2019-05-13T15:03:33.066Z,99890.59
2019-05-13T15:06:02.033Z,99878.52
2019-05-13T15:08:41.461Z,99874.42
2019-05-13T15:11:01.896Z,99872.72
2019-05-13T15:13:31.899Z,99880.72
2019-05-13T15:16:00.957Z,99876.92
2019-05-13T15:18:32.772Z,99874.08
2019-05-13T15:21:01.999Z,99866.84
2019-05-13T15:23:32.039Z,99869.69
2019-05-13T15:26:02.258Z,99865.72
2019-05-13T15:28:31.593Z,99852.03
2019-05-13T15:31:00.494Z,99846.52
2019-05-13T15:33:32.605Z,99850.71
2019-05-13T15:36:02.250Z,99851.75
2019-05-13T15:38:32.090Z,99845.98
2019-05-13T15:41:01.890Z,99832.17
2019-05-13T15:43:31.881Z,99825.86
2019-05-13T15:46:01.755Z,99834.59
2019-05-13T15:48:31.555Z,99834.59
2019-05-13T15:51:02.320Z,99843.51
2019-05-13T15:53:37.675Z,99833.83
2019-05-13T15:56:06.234Z,99835.55
2019-05-13T15:58:40.252Z,99834.66
2019-05-13T16:01:05.119Z,99829.29
2019-05-13T16:03:41.578Z,99822.55
2019-05-13T16:06:10.524Z,99831.84
2019-05-13T16:08:43.346Z,99828.20
2019-05-13T16:11:12.574Z,99832.11
2019-05-13T16:13:44.509Z,99833.72
2019-05-13T16:16:12.994Z,99827.55
2019-05-13T16:18:42.099Z,99835.27
2019-05-13T16:21:12.088Z,99835.50
2019-05-13T16:23:42.891Z,99828.30
2019-05-13T16:26:11.673Z,99828.81
2019-05-13T16:28:41.888Z,99831.16
2019-05-13T16:31:11.921Z,99837.88
2019-05-13T16:33:41.724Z,99835.27
2019-05-13T16:36:12.673Z,99829.02
2019-05-13T16:38:41.721Z,99817.63
2019-05-13T16:41:12.420Z,99822.20
2019-05-13T16:43:43.742Z,99815.68
2019-05-13T16:46:12.131Z,99815.70
2019-05-13T16:48:41.575Z,99825.26
2019-05-13T16:51:12.551Z,99817.94
2019-05-13T16:53:42.214Z,99810.53
2019-05-13T16:56:25.364Z,99808.86
2019-05-13T16:58:41.880Z,99810.67
2019-05-13T17:01:11.941Z,99805.18
2019-05-13T17:03:41.462Z,99805.91
2019-05-13T17:06:12.442Z,99803.27
2019-05-13T17:08:42.521Z,99809.77
2019-05-13T17:11:11.804Z,99804.19
2019-05-13T17:13:42.247Z,99806.02
2019-05-13T17:16:10.990Z,99815.02
2019-05-13T17:18:41.704Z,99812.70
2019-05-13T17:21:11.470Z,99809.05
2019-05-13T17:23:41.849Z,99806.62
2019-05-13T17:26:11.648Z,99811.94
2019-05-13T17:28:41.728Z,99807.19
2019-05-13T17:31:11.532Z,99807.02
2019-05-13T17:33:40.242Z,99807.69
2019-05-13T17:36:08.765Z,99799.97
2019-05-13T17:38:37.256Z,99812.09
2019-05-13T17:41:06.049Z,99819.44
2019-05-13T17:43:34.543Z,99804.04
2019-05-13T17:46:03.123Z,99801.76
2019-05-13T17:48:32.942Z,99807.00
2019-05-13T17:51:01.922Z,99803.14
2019-05-13T17:53:32.474Z,99805.00
2019-05-13T17:56:02.465Z,99800.74
2019-05-13T17:58:31.469Z,99805.73
2019-05-13T18:01:01.597Z,99808.78
2019-05-13T18:03:32.043Z,99809.53
2019-05-13T18:06:02.264Z,99805.27
2019-05-13T18:08:33.994Z,99804.75
2019-05-13T18:11:03.036Z,99801.97
2019-05-13T18:13:32.003Z,99807.69
2019-05-13T18:16:02.357Z,99803.80
2019-05-13T18:18:42.671Z,99806.52
2019-05-13T18:21:02.369Z,99806.52
2019-05-13T18:23:32.378Z,99806.61
2019-05-13T18:26:01.980Z,99810.44
2019-05-13T18:28:31.603Z,99816.27
2019-05-13T18:31:01.785Z,99815.17
2019-05-13T18:33:31.917Z,99813.30
2019-05-13T18:36:01.760Z,99817.48
2019-05-13T18:38:31.282Z,99820.11
2019-05-13T18:41:01.745Z,99819.38
2019-05-13T18:43:32.051Z,99817.81
2019-05-13T18:46:02.036Z,99817.75
2019-05-13T18:48:32.381Z,99817.43
2019-05-13T18:51:01.393Z,99823.73
2019-05-13T18:53:32.094Z,99824.34
2019-05-13T18:56:01.932Z,99825.41
2019-05-13T18:58:31.664Z,99824.33
2019-05-13T19:01:01.316Z,99819.36
2019-05-13T19:03:32.190Z,99820.48
2019-05-13T19:06:00.662Z,99824.09
2019-05-13T19:08:31.874Z,99823.80
2019-05-13T19:11:01.147Z,99820.67
2019-05-13T19:13:32.867Z,99826.13
2019-05-13T19:16:02.377Z,99827.16
2019-05-13T19:18:32.290Z,99830.11
2019-05-13T19:21:01.910Z,99820.55
2019-05-13T19:23:31.465Z,99818.07
2019-05-13T19:26:01.893Z,99816.20
2019-05-13T19:28:31.748Z,99809.50
2019-05-13T19:31:02.189Z,99810.84
2019-05-13T19:33:30.768Z,99814.98
2019-05-13T19:36:01.458Z,99803.37
2019-05-13T19:38:31.660Z,99806.27
2019-05-13T19:41:01.790Z,99808.08
2019-05-13T19:43:31.404Z,99801.91
2019-05-13T19:46:01.481Z,99798.94
2019-05-13T19:48:32.677Z,99800.71
2019-05-13T19:51:01.590Z,99794.81
2019-05-13T19:53:31.898Z,99796.80
2019-05-13T19:56:01.439Z,99789.97
2019-05-13T19:58:32.423Z,99792.44
2019-05-13T20:01:00.458Z,99791.84
2019-05-13T20:03:31.476Z,99784.93
2019-05-13T20:05:59.210Z,99792.45
2019-05-13T20:08:27.769Z,99782.33
2019-05-13T20:10:56.370Z,99781.81
2019-05-13T20:13:24.866Z,99774.40
2019-05-13T20:15:53.404Z,99774.39
2019-05-13T20:18:22.911Z,99770.02
2019-05-13T20:20:52.167Z,99769.52
2019-05-13T20:23:21.331Z,99759.05
2019-05-13T20:25:52.251Z,99757.73
2019-05-13T20:28:20.966Z,99760.61
2019-05-13T20:30:51.127Z,99759.50
2019-05-13T20:33:22.034Z,99754.87
2019-05-13T20:35:50.019Z,99752.83
2019-05-13T20:38:18.574Z,99748.30
2019-05-13T20:40:47.100Z,99755.35
2019-05-13T20:43:15.587Z,99748.69
2019-05-13T20:45:44.118Z,99752.83
2019-05-13T20:48:12.610Z,99748.32
2019-05-13T20:50:41.391Z,99740.96
2019-05-13T20:53:11.544Z,99741.52
2019-05-13T20:55:41.714Z,99746.79
2019-05-13T20:58:12.820Z,99750.02
2019-05-13T21:00:42.194Z,99749.22
2019-05-13T21:03:11.701Z,99745.50
2019-05-13T21:05:41.540Z,99742.89
2019-05-13T21:08:10.279Z,99746.22
2019-05-13T21:10:38.760Z,99751.34
2019-05-13T21:13:07.264Z,99749.22
2019-05-13T21:15:35.808Z,99747.51
2019-05-13T21:18:04.963Z,99744.30
2019-05-13T21:20:33.444Z,99738.85
2019-05-13T21:23:02.374Z,99751.63
2019-05-13T21:25:32.577Z,99751.63
2019-05-13T21:28:02.165Z,99743.38
2019-05-13T21:30:30.892Z,99746.50
2019-05-13T21:32:59.395Z,99746.04
2019-05-13T21:35:27.902Z,99749.97
2019-05-13T21:37:56.413Z,99754.63
2019-05-13T21:40:24.894Z,99743.11
2019-05-13T21:42:53.403Z,99739.98
2019-05-13T21:45:21.886Z,99742.45
2019-05-13T21:47:50.597Z,99737.58
2019-05-13T21:50:31.100Z,99738.68
2019-05-13T21:52:51.555Z,99732.95
2019-05-13T21:55:21.714Z,99726.89
2019-05-13T21:57:52.890Z,99729.02
2019-05-13T22:00:25.298Z,99724.80
2019-05-13T22:02:53.773Z,99724.66
2019-05-13T22:05:22.344Z,99721.71
2019-05-13T22:07:50.881Z,99710.64
2019-05-13T22:10:21.526Z,99720.72
2019-05-13T22:12:51.922Z,99719.66
2019-05-13T22:15:21.820Z,99730.69
2019-05-13T22:17:51.393Z,99727.50
2019-05-13T22:20:21.342Z,99722.12
2019-05-13T22:22:51.959Z,99715.78
2019-05-13T22:25:20.180Z,99704.04
2019-05-13T22:27:48.697Z,99704.02
2019-05-13T22:30:17.344Z,99708.12
2019-05-13T22:32:45.840Z,99710.65
2019-05-13T22:35:14.558Z,99704.80
2019-05-13T22:37:43.052Z,99698.76
2019-05-13T22:40:11.670Z,99696.08
2019-05-13T22:42:41.572Z,99694.11
2019-05-13T22:45:11.714Z,99695.11
2019-05-13T22:47:41.706Z,99700.90
2019-05-13T22:50:11.457Z,99705.69
2019-05-13T22:52:41.958Z,99701.30
2019-05-13T22:55:11.505Z,99703.52
2019-05-13T22:57:42.009Z,99704.05
2019-05-13T23:00:11.925Z,99704.59
2019-05-13T23:02:42.212Z,99710.66
2019-05-13T23:05:11.541Z,99699.06
2019-05-13T23:07:40.044Z,99706.80
2019-05-13T23:10:08.699Z,99701.30
2019-05-13T23:12:37.200Z,99700.20
2019-05-13T23:15:07.298Z,99701.02
2019-05-13T23:17:35.804Z,99692.46
2019-05-13T23:20:06.065Z,99696.30
2019-05-13T23:22:34.575Z,99692.77
2019-05-13T23:25:03.064Z,99679.20
2019-05-13T23:27:32.091Z,99675.59
2019-05-13T23:30:01.310Z,99678.16
2019-05-13T23:32:32.015Z,99674.06
2019-05-13T23:35:01.975Z,99671.84
2019-05-13T23:37:31.107Z,99672.92
2019-05-13T23:40:01.411Z,99661.84
2019-05-13T23:42:31.995Z,99658.80
2019-05-13T23:45:00.169Z,99655.80
2019-05-13T23:47:30.761Z,99650.81
2019-05-13T23:49:58.909Z,99653.54
2019-05-13T23:52:27.404Z,99645.05
2019-05-13T23:54:55.910Z,99633.20
2019-05-13T23:57:24.466Z,99625.15
2019-05-13T23:59:52.970Z,99625.46
